Time;durP1;ratioP1;P1;durP2;ratioP2;P2;SDS_P1;SDS_P2;PMS_P1;PMS_P2;Temp;Humidity;BMP_temperature;BMP_pressure;BME280_temperature;BME280_humidity;BME280_pressure;Samples;Min_cycle;Max_cycle;Signal;HPM_P1;HPM_P2
2022/04/16 00:00:09;;;;;;;;;7.00;7.00;;;;;17.40;56.60;99541.81;5096854;27;45410;-64
2022/04/16 00:02:34;;;;;;;;;7.25;6.75;;;;;17.40;56.47;99541.81;5096853;27;45376;-64
2022/04/16 00:05:00;;;;;;;;;8.00;7.00;;;;;17.40;56.93;99543.63;5097180;27;45465;-64
2022/04/16 00:07:25;;;;;;;;;7.00;7.00;;;;;17.38;57.01;99538.41;5087293;27;45482;-64
2022/04/16 00:09:51;;;;;;;;;11.00;8.00;;;;;17.37;56.81;99542.00;5095928;27;46200;-64
2022/04/16 00:12:16;;;;;;;;;10.00;8.00;;;;;17.35;56.99;99535.06;5096986;27;45381;-64
2022/04/16 00:14:42;;;;;;;;;10.25;8.00;;;;;17.33;56.61;99534.28;5096426;27;45450;-64
2022/04/16 00:17:07;;;;;;;;;8.50;7.75;;;;;17.29;57.38;99532.75;5096449;27;45558;-65
2022/04/16 00:19:34;;;;;;;;;8.00;6.75;;;;;17.22;57.56;99534.94;5096910;27;46158;-64
2022/04/16 00:22:00;;;;;;;;;8.75;7.00;;;;;17.19;57.57;99534.28;5096666;27;45447;-64
2022/04/16 00:24:29;;;;;;;;;8.50;6.75;;;;;17.14;57.85;99536.34;5096772;27;45405;-64
2022/04/16 00:26:55;;;;;;;;;12.50;9.25;;;;;17.12;57.29;99535.56;5096825;27;45543;-64
2022/04/16 00:29:21;;;;;;;;;11.75;10.25;;;;;17.12;57.65;99536.44;5096705;27;46408;-64
2022/04/16 00:31:47;;;;;;;;;11.75;11.75;;;;;17.12;58.27;99535.56;5096158;27;45414;-64
2022/04/16 00:34:14;;;;;;;;;10.50;10.50;;;;;17.12;58.39;99538.25;5096720;27;45343;-64
2022/04/16 00:36:41;;;;;;;;;10.50;8.25;;;;;17.12;58.38;99531.09;5096595;27;45301;-64
2022/04/16 00:39:07;;;;;;;;;10.25;9.00;;;;;17.13;57.98;99535.50;5096527;27;45594;-64
2022/04/16 00:41:32;;;;;;;;;12.00;12.00;;;;;17.15;58.58;99530.06;5096291;27;45400;-64
2022/04/16 00:43:58;;;;;;;;;8.00;7.50;;;;;17.15;57.75;99536.25;5088184;27;45447;-64
2022/04/16 00:46:23;;;;;;;;;8.00;8.00;;;;;17.16;57.50;99537.13;5089119;27;45398;-64
2022/04/16 00:48:49;;;;;;;;;7.75;7.75;;;;;17.16;57.96;99532.66;5096769;27;45386;-64
2022/04/16 00:51:15;;;;;;;;;10.50;9.50;;;;;17.19;57.63;99537.78;5095056;27;45395;-64
2022/04/16 00:53:41;;;;;;;;;11.00;8.25;;;;;17.18;57.92;99541.41;5096728;27;45501;-64
2022/04/16 00:56:10;;;;;;;;;12.25;10.25;;;;;17.18;57.80;99538.75;5096469;27;45393;-64
2022/04/16 00:58:35;;;;;;;;;9.00;7.25;;;;;17.17;57.11;99537.03;5096623;27;46538;-64
2022/04/16 01:01:01;;;;;;;;;11.00;9.50;;;;;17.14;57.34;99541.69;5096057;27;45339;-64
2022/04/16 01:03:26;;;;;;;;;10.25;10.25;;;;;17.09;57.85;99534.81;5095560;27;45479;-64
2022/04/16 01:05:52;;;;;;;;;6.00;6.00;;;;;17.05;57.68;99529.78;5096120;27;45484;-64
2022/04/16 01:08:20;;;;;;;;;10.75;9.50;;;;;17.01;57.56;99542.41;5095927;27;45533;-64
2022/04/16 01:10:45;;;;;;;;;8.50;8.50;;;;;16.96;58.16;99535.66;5096139;27;45453;-64
2022/04/16 01:13:11;;;;;;;;;9.25;9.25;;;;;16.89;58.37;99528.97;5096481;27;45306;-64
2022/04/16 01:15:39;;;;;;;;;7.00;7.00;;;;;16.82;58.35;99535.59;5094691;27;45445;-65
2022/04/16 01:18:05;;;;;;;;;8.25;8.25;;;;;16.76;58.41;99522.69;5096070;27;45681;-64
2022/04/16 01:20:37;;;;;;;;;8.75;8.00;;;;;16.68;58.60;99523.97;5096111;27;45349;-64
2022/04/16 01:23:03;;;;;;;;;15.00;8.75;;;;;16.62;58.73;99518.97;5096385;27;45355;-64
2022/04/16 01:25:32;;;;;;;;;10.75;8.50;;;;;16.59;58.89;99520.97;5094614;27;45383;-64
2022/04/16 01:27:58;;;;;;;;;12.25;11.25;;;;;16.57;59.33;99522.84;5083940;27;45394;-64
2022/04/16 01:30:23;;;;;;;;;9.25;8.50;;;;;16.54;58.75;99512.38;5095973;27;45296;-64
2022/04/16 01:32:49;;;;;;;;;11.25;8.50;;;;;16.49;59.32;99523.28;5095910;27;45501;-64
2022/04/16 01:35:16;;;;;;;;;11.00;9.00;;;;;16.45;59.44;99511.09;5095884;27;45528;-64
2022/04/16 01:37:42;;;;;;;;;9.50;8.50;;;;;16.43;59.84;99512.97;5095781;27;45581;-64
2022/04/16 01:40:10;;;;;;;;;10.75;10.00;;;;;16.39;59.67;99519.44;5095654;27;45447;-64
2022/04/16 01:42:36;;;;;;;;;12.50;10.50;;;;;16.34;60.01;99517.03;5095737;27;45195;-64
2022/04/16 01:45:06;;;;;;;;;12.75;10.00;;;;;16.30;60.26;99522.63;5095639;27;45371;-64
2022/04/16 01:47:34;;;;;;;;;11.50;11.25;;;;;16.25;60.07;99525.56;5095153;27;45387;-64
2022/04/16 01:50:00;;;;;;;;;11.50;9.00;;;;;16.23;60.42;99527.47;5095503;27;45325;-64
2022/04/16 01:52:26;;;;;;;;;11.50;9.50;;;;;16.18;60.67;99520.66;5095516;27;45357;-64
2022/04/16 01:54:52;;;;;;;;;12.00;9.25;;;;;16.12;60.85;99529.84;5094446;27;45467;-64
2022/04/16 01:57:19;;;;;;;;;9.50;9.50;;;;;16.07;61.05;99525.75;5095665;27;45463;-65
2022/04/16 01:59:49;;;;;;;;;12.00;12.00;;;;;16.03;61.23;99520.59;5095721;27;45465;-64
2022/04/16 02:02:16;;;;;;;;;12.00;9.75;;;;;16.00;61.48;99518.09;5095451;27;45391;-64
2022/04/16 02:04:43;;;;;;;;;12.00;10.75;;;;;15.95;61.74;99522.81;5090759;27;45410;-64
2022/04/16 02:07:08;;;;;;;;;11.75;8.75;;;;;15.91;61.29;99523.94;5085988;27;45470;-64
2022/04/16 02:09:34;;;;;;;;;10.00;10.00;;;;;15.88;61.80;99521.44;5095532;27;45312;-65
2022/04/16 02:11:59;;;;;;;;;13.00;12.50;;;;;15.84;61.93;99525.22;5095530;27;45372;-64
2022/04/16 02:14:25;;;;;;;;;10.50;9.50;;;;;15.78;62.54;99535.31;5096747;27;45407;-64
2022/04/16 02:16:50;;;;;;;;;12.75;12.00;;;;;15.71;62.41;99529.50;5098712;27;45511;-64
2022/04/16 02:19:16;;;;;;;;;12.00;7.75;;;;;15.68;62.56;99530.50;5098882;27;45375;-64
2022/04/16 02:21:42;;;;;;;;;11.00;9.75;;;;;15.64;62.80;99523.63;5099268;27;45427;-64
2022/04/16 02:24:08;;;;;;;;;9.50;9.50;;;;;15.61;62.86;99534.44;5098864;27;45569;-64
2022/04/16 02:26:34;;;;;;;;;13.50;13.50;;;;;15.58;63.18;99531.09;5098737;27;45332;-64
2022/04/16 02:29:00;;;;;;;;;10.75;9.75;;;;;15.55;63.08;99534.78;5098363;27;45372;-64
2022/04/16 02:31:28;;;;;;;;;12.25;9.50;;;;;15.54;62.98;99530.38;5098100;27;45428;-64
2022/04/16 02:33:57;;;;;;;;;12.00;10.50;;;;;15.54;62.96;99538.34;5098100;27;45536;-64
2022/04/16 02:36:26;;;;;;;;;10.50;10.50;;;;;15.53;63.27;99530.44;5098198;27;45421;-64
2022/04/16 02:38:54;;;;;;;;;13.00;10.75;;;;;15.51;63.53;99535.84;5098486;27;45358;-64
2022/04/16 02:41:20;;;;;;;;;11.00;11.00;;;;;15.49;63.45;99540.38;5098712;27;45402;-64
2022/04/16 02:43:46;;;;;;;;;12.75;12.75;;;;;15.45;63.63;99538.81;5098300;27;45514;-64
2022/04/16 02:48:56;;;;;;;;;13.00;12.25;;;;;15.36;64.23;99526.91;5098477;27;45388;-64
2022/04/16 02:51:21;;;;;;;;;15.00;11.75;;;;;15.35;64.29;99522.53;5098442;27;45697;-64
2022/04/16 02:53:47;;;;;;;;;13.25;13.25;;;;;15.34;63.74;99518.16;5098554;27;45496;-64
2022/04/16 02:56:13;;;;;;;;;17.00;12.00;;;;;15.35;64.17;99521.66;5098274;27;46323;-64
2022/04/16 02:58:38;;;;;;;;;13.00;11.25;;;;;15.32;64.16;99522.69;5098421;27;45363;-64
2022/04/16 03:01:04;;;;;;;;;10.00;10.00;;;;;15.28;64.02;99522.91;5083980;27;45364;-64
2022/04/16 03:03:30;;;;;;;;;14.00;10.50;;;;;15.27;64.53;99524.72;5098391;27;45489;-64
2022/04/16 03:05:55;;;;;;;;;12.00;10.50;;;;;15.25;64.65;99528.38;5097959;27;46018;-64
2022/04/16 03:08:24;;;;;;;;;12.75;11.75;;;;;15.25;64.66;99528.38;5098171;27;45920;-64
2022/04/16 03:10:50;;;;;;;;;11.25;11.25;;;;;15.24;64.08;99524.91;5098484;27;45421;-64
2022/04/16 03:13:16;;;;;;;;;12.00;10.75;;;;;15.25;64.40;99529.25;5097877;27;45332;-64
2022/04/16 03:18:26;;;;;;;;;15.25;12.00;;;;;15.25;64.68;99525.72;5098107;27;45341;-65
2022/04/16 03:20:51;;;;;;;;;11.75;11.25;;;;;15.21;64.71;99526.84;5096813;27;45756;-64
2022/04/16 03:23:17;;;;;;;;;12.50;12.25;;;;;15.15;64.90;99520.06;5096679;27;45486;-64
2022/04/16 03:25:45;;;;;;;;;9.00;9.00;;;;;15.12;65.08;99522.00;5086282;27;46670;-64
2022/04/16 03:28:12;;;;;;;;;13.00;11.25;;;;;15.10;64.76;99518.56;5089617;27;45454;-64
2022/04/16 03:30:38;;;;;;;;;14.25;12.75;;;;;15.06;65.27;99517.88;5094309;27;45426;-65
2022/04/16 03:33:04;;;;;;;;;14.25;12.50;;;;;15.01;65.46;99518.13;5097993;27;45486;-64
2022/04/16 03:35:30;;;;;;;;;13.25;12.75;;;;;14.96;65.18;99512.19;5097427;27;46629;-64
2022/04/16 03:37:56;;;;;;;;;12.50;11.75;;;;;14.94;65.32;99513.19;5097855;27;45813;-64
2022/04/16 03:40:26;;;;;;;;;12.75;11.25;;;;;14.93;65.18;99516.78;5097391;27;45454;-64
2022/04/16 03:42:55;;;;;;;;;16.50;12.75;;;;;14.93;65.37;99514.13;5097667;27;45453;-64
2022/04/16 03:45:31;;;;;;;;;10.50;10.25;;;;;14.93;65.33;99511.47;5097376;27;46362;-64
2022/04/16 03:47:59;;;;;;;;;13.50;12.50;;;;;14.89;65.57;99510.78;5095815;27;45436;-64
2022/04/16 03:50:26;;;;;;;;;17.00;14.25;;;;;14.88;66.11;99514.38;5097715;27;45431;-64
2022/04/16 03:52:53;;;;;;;;;15.75;12.50;;;;;14.88;66.55;99513.53;5097096;27;45502;-64
2022/04/16 04:00:50;;;;;;;;;15.50;14.25;;;;;14.86;66.80;99505.63;5094401;27;45356;-65
2022/04/16 04:03:16;;;;;;;;;17.25;16.75;;;;;14.83;66.84;99508.44;5093509;27;45440;-65
2022/04/16 04:05:43;;;;;;;;;15.50;14.75;;;;;14.82;66.96;99508.53;5095327;27;46286;-65
2022/04/16 04:08:09;;;;;;;;;16.00;13.25;;;;;14.80;66.24;99524.53;5096698;27;45440;-64
2022/04/16 04:10:39;;;;;;;;;12.25;11.00;;;;;14.78;66.24;99522.88;5095586;27;45434;-64
2022/04/16 04:13:05;;;;;;;;;14.00;13.75;;;;;14.73;66.39;99522.28;5096737;27;45361;-64
2022/04/16 04:15:32;;;;;;;;;8.75;7.25;;;;;14.63;66.79;99520.06;5096221;27;45979;-64
2022/04/16 04:17:59;;;;;;;;;14.50;13.50;;;;;14.58;66.89;99521.22;5096989;27;45379;-64
2022/04/16 04:20:26;;;;;;;;;12.00;11.75;;;;;14.53;67.42;99523.25;5097173;27;45386;-65
2022/04/16 04:22:52;;;;;;;;;15.25;13.75;;;;;14.48;67.21;99526.13;5083105;27;45328;-64
2022/04/16 04:25:17;;;;;;;;;12.50;12.50;;;;;14.44;67.83;99523.72;5096659;27;45416;-65
2022/04/16 04:27:43;;;;;;;;;13.00;12.00;;;;;14.41;67.40;99518.56;5095936;27;45338;-64
2022/04/16 04:30:09;;;;;;;;;14.00;12.50;;;;;14.38;67.17;99521.34;5096752;27;45454;-65
2022/04/16 04:32:36;;;;;;;;;15.00;13.75;;;;;14.36;67.14;99525.84;5094937;27;45527;-65
2022/04/16 04:35:03;;;;;;;;;12.00;11.25;;;;;14.30;67.53;99522.56;5083891;27;45368;-65
2022/04/16 04:37:28;;;;;;;;;13.75;11.75;;;;;14.26;67.56;99528.94;5095472;27;45232;-65
2022/04/16 04:39:54;;;;;;;;;17.33;15.00;;;;;14.24;67.56;99530.81;5096631;27;45305;-64
2022/04/16 04:42:27;;;;;;;;;13.75;13.75;;;;;14.25;67.91;99526.38;5090072;27;45691;-64
2022/04/16 04:44:53;;;;;;;;;13.67;11.67;;;;;14.27;68.18;99521.84;5088216;27;46418;-64
2022/04/16 04:47:19;;;;;;;;;19.00;16.75;;;;;14.27;68.63;99524.50;5095841;27;45525;-65
2022/04/16 04:49:44;;;;;;;;;16.75;15.50;;;;;14.28;69.44;99527.06;5096429;27;45404;-65
2022/04/16 04:52:09;;;;;;;;;15.50;13.50;;;;;14.25;70.09;99534.31;5096366;27;45338;-65
2022/04/16 04:54:35;;;;;;;;;20.67;18.00;;;;;14.23;70.43;99536.22;5095778;27;46338;-65
2022/04/16 04:57:03;;;;;;;;;19.00;18.00;;;;;14.19;70.17;99542.59;5094605;27;45300;-65
2022/04/16 04:59:28;;;;;;;;;18.33;17.00;;;;;14.15;70.01;99539.22;5096088;27;45501;-65
2022/04/16 05:01:54;;;;;;;;;21.00;18.67;;;;;14.15;70.13;99535.72;5095815;27;45540;-64
2022/04/16 05:04:19;;;;;;;;;19.33;17.00;;;;;14.16;70.11;99529.47;5095985;27;46330;-64
2022/04/16 05:06:44;;;;;;;;;15.00;12.67;;;;;14.17;69.70;99540.00;5094556;27;45573;-64
2022/04/16 05:09:10;;;;;;;;;15.50;13.00;;;;;14.16;69.05;99537.44;5095836;27;45450;-65
2022/04/16 05:11:37;;;;;;;;;17.75;15.25;;;;;14.17;69.30;99534.69;5094588;27;45496;-64
2022/04/16 05:14:02;;;;;;;;;16.25;13.50;;;;;14.18;69.36;99541.72;5081535;27;45396;-64
2022/04/16 05:16:28;;;;;;;;;15.25;13.00;;;;;14.17;69.30;99532.06;5095469;27;45371;-64
2022/04/16 05:18:55;;;;;;;;;20.33;18.67;;;;;14.17;69.62;99532.06;5095592;27;45674;-65
2022/04/16 05:21:21;;;;;;;;;17.00;16.00;;;;;14.19;69.46;99542.59;5095835;27;45391;-65
2022/04/16 05:23:46;;;;;;;;;15.67;14.00;;;;;14.20;69.71;99542.53;5095549;27;46442;-65
2022/04/16 05:26:12;;;;;;;;;18.33;17.33;;;;;14.18;69.50;99539.06;5095741;27;45477;-64
2022/04/16 05:28:39;;;;;;;;;17.00;16.33;;;;;14.19;69.46;99547.88;5095535;27;45377;-65
2022/04/16 05:31:07;;;;;;;;;17.00;15.00;;;;;14.21;69.33;99543.38;5095664;27;45379;-65
2022/04/16 05:36:17;;;;;;;;;15.67;15.00;;;;;14.23;69.75;99550.34;5095689;27;45423;-63
2022/04/16 05:38:43;;;;;;;;;21.33;17.33;;;;;14.25;69.69;99548.44;5095220;27;45386;-64
2022/04/16 05:41:08;;;;;;;;;18.67;17.33;;;;;14.27;69.63;99543.06;5095259;27;45417;-64
2022/04/16 05:43:34;;;;;;;;;18.33;17.00;;;;;14.28;70.16;99548.28;5079848;27;46769;-64
2022/04/16 05:45:59;;;;;;;;;20.67;20.33;;;;;14.30;70.04;99553.53;5094282;27;45367;-63
2022/04/16 05:48:25;;;;;;;;;19.75;17.00;;;;;14.31;70.26;99545.50;5091277;27;45377;-64
2022/04/16 05:50:50;;;;;;;;;21.33;19.67;;;;;14.35;70.44;99555.97;5098325;27;45350;-64
2022/04/16 05:53:17;;;;;;;;;19.75;16.25;;;;;14.37;70.28;99557.63;5098383;27;46159;-63
2022/04/16 05:55:48;;;;;;;;;18.00;17.25;;;;;14.40;70.05;99567.22;5098772;27;45685;-64
2022/04/16 05:58:15;;;;;;;;;19.33;19.00;;;;;14.41;69.80;99558.38;5098586;27;45398;-63
2022/04/16 06:00:41;;;;;;;;;20.00;17.00;;;;;14.40;69.76;99560.16;5097733;27;45356;-63
2022/04/16 06:03:06;;;;;;;;;16.50;13.00;;;;;14.40;68.66;99568.13;5097782;27;46122;-64
2022/04/16 06:05:32;;;;;;;;;18.67;17.00;;;;;14.39;69.02;99571.66;5098707;27;45455;-64
2022/04/16 06:07:58;;;;;;;;;16.00;14.33;;;;;14.36;69.61;99566.50;5096715;27;45526;-64
2022/04/16 06:10:24;;;;;;;;;15.00;15.00;;;;;14.34;69.46;99563.06;5088837;27;45569;-64
2022/04/16 06:12:50;;;;;;;;;17.67;16.33;;;;;14.31;69.22;99565.84;5097576;27;46025;-64
2022/04/16 06:15:15;;;;;;;;;21.33;20.67;;;;;14.31;69.22;99566.72;5097830;27;45426;-64
2022/04/16 06:17:41;;;;;;;;;18.00;16.25;;;;;14.37;68.98;99570.03;5097746;27;45407;-64
2022/04/16 06:20:08;;;;;;;;;18.33;18.00;;;;;14.39;68.96;99566.38;5098327;27;45429;-64
2022/04/16 06:22:34;;;;;;;;;18.75;18.25;;;;;14.42;68.87;99565.34;5097835;27;46376;-64
2022/04/16 06:25:00;;;;;;;;;24.00;20.33;;;;;14.47;68.89;99568.66;5097290;27;45434;-64
2022/04/16 06:27:25;;;;;;;;;17.75;15.75;;;;;14.51;68.97;99563.13;5096342;27;45561;-64
2022/04/16 06:29:51;;;;;;;;;19.33;18.00;;;;;14.57;68.50;99562.84;5098046;27;45312;-64
2022/04/16 06:32:16;;;;;;;;;20.00;18.33;;;;;14.63;68.51;99561.66;5096914;27;45543;-64
2022/04/16 06:34:41;;;;;;;;;18.33;17.00;;;;;14.68;68.32;99561.44;5096838;27;45372;-64
2022/04/16 06:37:07;;;;;;;;;21.33;19.67;;;;;14.75;68.36;99560.19;5097439;27;45453;-64
2022/04/16 06:39:32;;;;;;;;;21.50;18.50;;;;;14.79;68.05;99554.66;5098038;27;45505;-64
2022/04/16 06:41:58;;;;;;;;;20.00;19.33;;;;;14.86;68.15;99560.53;5097513;27;45823;-64
2022/04/16 06:44:24;;;;;;;;;23.00;21.00;;;;;14.92;67.94;99558.41;5097783;27;45485;-64
2022/04/16 06:46:50;;;;;;;;;19.33;18.00;;;;;15.00;68.14;99560.69;5097123;27;45423;-64
2022/04/16 06:49:16;;;;;;;;;21.00;19.00;;;;;15.10;67.94;99553.94;5097376;27;45464;-64
2022/04/16 06:51:42;;;;;;;;;21.00;19.50;;;;;15.19;67.71;99552.63;5097280;27;45685;-64
2022/04/16 06:54:08;;;;;;;;;19.67;18.67;;;;;15.25;67.54;99537.22;5097718;27;45390;-64
2022/04/16 06:56:33;;;;;;;;;22.67;20.67;;;;;15.32;67.06;99543.94;5097972;27;45472;-64
2022/04/16 06:59:00;;;;;;;;;21.25;19.00;;;;;15.29;67.38;99541.44;5097325;27;45526;-64
2022/04/16 07:01:25;;;;;;;;;23.50;21.50;;;;;15.25;66.97;99542.53;5094156;27;45481;-64
2022/04/16 07:03:51;;;;;;;;;20.00;18.00;;;;;15.24;67.43;99537.31;5097249;27;45358;-64
2022/04/16 07:06:16;;;;;;;;;20.67;19.00;;;;;15.21;66.94;99541.00;5097107;27;45354;-64
2022/04/16 07:08:41;;;;;;;;;21.00;18.33;;;;;15.19;67.08;99536.69;5096902;27;45476;-64
2022/04/16 07:11:07;;;;;;;;;23.67;19.67;;;;;15.18;67.10;99540.28;5095337;27;47000;-64
2022/04/16 07:13:32;;;;;;;;;21.00;19.00;;;;;15.20;66.95;99533.97;5097096;27;45444;-64
2022/04/16 07:15:58;;;;;;;;;25.67;22.00;;;;;15.21;66.96;99534.81;5096872;27;45908;-64
2022/04/16 07:18:24;;;;;;;;;19.33;18.33;;;;;15.22;66.70;99532.09;5097142;27;45399;-64
2022/04/16 07:20:49;;;;;;;;;21.00;20.00;;;;;15.25;66.09;99523.06;5096246;27;46476;-64
2022/04/16 07:23:15;;;;;;;;;20.33;20.33;;;;;15.30;66.15;99511.28;5096723;27;45446;-64
2022/04/16 07:25:40;;;;;;;;;22.67;20.33;;;;;15.39;65.88;99509.94;5096974;27;45800;-64
2022/04/16 07:28:06;;;;;;;;;20.00;18.33;;;;;15.49;65.50;99510.28;5097163;27;45474;-64
2022/04/16 07:30:31;;;;;;;;;16.75;16.25;;;;;15.58;64.91;99510.69;5094214;27;45439;-64
2022/04/16 07:32:57;;;;;;;;;18.75;15.00;;;;;15.66;64.39;99510.25;5096742;27;45454;-64
2022/04/16 07:35:23;;;;;;;;;16.75;14.25;;;;;15.75;63.14;99511.56;5096601;27;45450;-64
2022/04/16 07:37:48;;;;;;;;;14.50;13.75;;;;;15.82;62.25;99510.28;5094684;27;45496;-63
2022/04/16 07:40:14;;;;;;;;;22.25;17.00;;;;;15.85;62.91;99518.94;5096771;27;45441;-64
2022/04/16 07:42:40;;;;;;;;;18.50;18.25;;;;;15.93;62.53;99516.72;5096729;27;45353;-64
2022/04/16 07:45:06;;;;;;;;;18.75;16.00;;;;;15.99;62.16;99511.06;5096624;27;45334;-64
2022/04/16 07:47:31;;;;;;;;;12.75;11.75;;;;;16.04;62.14;99516.13;5096129;27;45419;-64
2022/04/16 07:49:57;;;;;;;;;15.75;15.00;;;;;16.07;62.06;99523.94;5096003;27;46170;-64
2022/04/16 07:52:24;;;;;;;;;13.25;12.75;;;;;16.07;61.97;99513.31;5093457;27;45714;-64
2022/04/16 07:54:51;;;;;;;;;18.00;16.00;;;;;16.08;61.25;99514.16;5095899;27;45416;-64
2022/04/16 07:57:16;;;;;;;;;17.25;17.25;;;;;16.09;61.56;99513.22;5087745;27;45377;-64
2022/04/16 07:59:42;;;;;;;;;17.25;13.25;;;;;16.09;60.88;99511.38;5090917;27;46102;-64
2022/04/16 08:02:07;;;;;;;;;10.75;10.75;;;;;16.12;60.26;99510.38;5087897;27;45462;-64
2022/04/16 08:04:33;;;;;;;;;17.75;16.00;;;;;16.13;60.22;99504.09;5092824;27;45648;-64
2022/04/16 08:06:58;;;;;;;;;14.75;14.50;;;;;16.17;59.63;99501.19;5088692;27;45522;-64
2022/04/16 08:09:23;;;;;;;;;13.25;12.50;;;;;16.25;59.59;99495.44;5096002;27;46093;-64
2022/04/16 08:11:49;;;;;;;;;13.00;13.00;;;;;16.35;59.42;99501.94;5095643;27;45432;-64
2022/04/16 08:14:14;;;;;;;;;12.50;12.50;;;;;16.44;58.98;99504.06;5095250;27;45476;-64
2022/04/16 08:16:40;;;;;;;;;13.00;13.00;;;;;16.52;58.41;99492.97;5094558;27;45575;-64
2022/04/16 08:19:06;;;;;;;;;13.75;13.50;;;;;16.59;57.97;99497.00;5094477;27;45552;-64
2022/04/16 08:21:32;;;;;;;;;13.75;12.50;;;;;16.64;57.80;99503.78;5094734;27;45494;-63
2022/04/16 08:24:12;;;;;;;;;15.25;14.50;;;;;16.69;57.76;99498.22;5094134;27;45391;-64
2022/04/16 08:26:38;;;;;;;;;17.00;15.00;;;;;16.78;57.27;99502.13;5094208;27;45486;-64
2022/04/16 08:29:03;;;;;;;;;16.75;14.00;;;;;16.85;57.25;99498.16;5094796;27;45542;-64
2022/04/16 08:31:29;;;;;;;;;15.00;15.00;;;;;16.91;57.34;99490.66;5083199;27;45463;-64
2022/04/16 08:33:55;;;;;;;;;14.25;12.50;;;;;17.00;57.27;99487.44;5091742;27;45526;-64
2022/04/16 08:36:20;;;;;;;;;15.50;14.50;;;;;17.03;56.42;99483.72;5091353;27;45401;-64
2022/04/16 08:38:46;;;;;;;;;14.25;14.25;;;;;17.07;55.45;99496.78;5094246;27;46279;-64
2022/04/16 08:41:12;;;;;;;;;13.25;12.50;;;;;17.12;55.37;99488.47;5095842;27;45410;-64
2022/04/16 08:43:39;;;;;;;;;15.25;12.00;;;;;17.17;55.61;99485.53;5095594;27;45419;-64
2022/04/16 08:46:05;;;;;;;;;12.75;12.00;;;;;17.24;55.71;99481.56;5094931;27;45411;-64
2022/04/16 08:48:32;;;;;;;;;11.75;11.25;;;;;17.33;55.29;99484.50;5094829;27;45951;-64
2022/04/16 08:50:59;;;;;;;;;12.75;12.50;;;;;17.41;54.53;99474.25;5095300;27;45438;-64
2022/04/16 08:53:25;;;;;;;;;13.00;12.00;;;;;17.51;54.77;99471.00;5095350;27;45357;-64
2022/04/16 08:55:50;;;;;;;;;16.75;14.25;;;;;17.60;53.85;99473.06;5085305;27;45408;-64
2022/04/16 08:58:16;;;;;;;;;15.25;13.50;;;;;17.66;54.54;99464.72;5092732;27;45663;-64
2022/04/16 09:00:41;;;;;;;;;14.00;14.00;;;;;17.73;54.37;99463.38;5094743;27;45466;-64
2022/04/16 09:03:09;;;;;;;;;11.75;11.75;;;;;17.78;53.89;99466.59;5094374;27;45317;-64
2022/04/16 09:05:35;;;;;;;;;12.00;12.00;;;;;17.83;53.18;99468.97;5094694;27;45536;-64
2022/04/16 09:08:05;;;;;;;;;11.75;11.75;;;;;17.87;53.38;99467.81;5094606;27;45570;-64
2022/04/16 09:10:32;;;;;;;;;16.25;16.25;;;;;17.92;52.61;99466.59;5092763;27;45430;-64
2022/04/16 09:13:01;;;;;;;;;15.75;14.00;;;;;17.96;53.08;99464.56;5094564;27;45445;-64
2022/04/16 09:15:28;;;;;;;;;13.50;13.25;;;;;18.02;52.71;99457.03;5094263;27;45495;-64
2022/04/16 09:18:06;;;;;;;;;15.75;13.25;;;;;18.06;52.73;99444.34;5093910;27;45391;-64
2022/04/16 09:20:37;;;;;;;;;20.50;19.25;;;;;18.13;53.37;99438.47;5095080;27;45363;-64
2022/04/16 09:23:21;;;;;;;;;16.75;16.25;;;;;18.22;52.96;99433.50;5094162;27;45450;-64
2022/04/16 09:25:47;;;;;;;;;15.00;13.50;;;;;18.28;51.99;99438.41;5092904;27;45382;-65
2022/04/16 09:28:15;;;;;;;;;17.25;17.25;;;;;18.29;52.52;99435.66;5084286;27;46392;-64
2022/04/16 09:30:52;;;;;;;;;14.50;14.25;;;;;18.32;52.36;99422.09;5091112;27;45428;-64
2022/04/16 09:33:18;;;;;;;;;16.00;15.50;;;;;18.37;52.21;99421.81;5094174;27;45435;-64
2022/04/16 09:35:45;;;;;;;;;27.67;21.67;;;;;18.42;52.43;99417.03;5094668;27;45549;-64
2022/04/16 09:38:14;;;;;;;;;16.25;15.00;;;;;18.47;51.41;99413.06;5094474;27;45458;-64
2022/04/16 09:40:41;;;;;;;;;18.25;17.50;;;;;18.53;51.90;99414.47;5093939;27;45358;-64
2022/04/16 09:43:07;;;;;;;;;14.50;14.50;;;;;18.62;51.58;99413.88;5095046;27;45377;-64
2022/04/16 09:45:37;;;;;;;;;14.50;14.25;;;;;18.68;51.31;99409.94;5093371;27;45546;-64
2022/04/16 09:48:02;;;;;;;;;11.50;11.50;;;;;18.72;51.50;99398.06;5094482;27;45499;-64
2022/04/16 09:50:32;;;;;;;;;66.50;51.75;;;;;18.76;51.42;99402.25;5094787;27;45423;-64
2022/04/16 09:53:01;;;;;;;;;10.00;9.00;;;;;18.84;50.86;99394.56;5094028;27;45443;-64
2022/04/16 09:55:27;;;;;;;;;11.25;10.25;;;;;18.91;50.51;99401.19;5090840;27;45460;-65
2022/04/16 09:58:04;;;;;;;;;8.00;8.00;;;;;18.96;50.63;99401.69;5093940;27;46311;-64
2022/04/16 10:00:32;;;;;;;;;15.00;14.25;;;;;19.03;49.64;99402.13;5093590;27;45336;-64
2022/04/16 10:03:00;;;;;;;;;11.75;9.75;;;;;19.07;49.67;99387.59;5080620;27;45300;-65
2022/04/16 10:05:26;;;;;;;;;10.50;10.50;;;;;19.10;49.32;99393.56;5092033;27;45373;-65
2022/04/16 10:07:55;;;;;;;;;10.00;8.25;;;;;19.18;48.30;99396.56;5085788;27;45601;-64
2022/04/16 10:10:40;;;;;;;;;11.00;10.25;;;;;19.18;49.26;99391.22;5092116;27;45313;-64
2022/04/16 10:13:09;;;;;;;;;14.50;13.75;;;;;19.24;49.03;99403.31;5092673;27;45482;-64
2022/04/16 10:15:55;;;;;;;;;15.75;14.75;;;;;19.27;48.71;99391.53;5093005;27;45366;-64
2022/04/16 10:18:21;;;;;;;;;13.00;9.50;;;;;19.32;48.51;99384.88;5093997;27;45448;-64
2022/04/16 10:21:00;;;;;;;;;12.00;12.00;;;;;19.40;47.70;99398.56;5080113;27;45614;-64
2022/04/16 10:23:31;;;;;;;;;13.25;12.00;;;;;19.49;47.66;99371.19;5083380;27;45569;-64
2022/04/16 10:26:01;;;;;;;;;10.50;10.25;;;;;19.51;48.52;99363.91;5091228;27;45500;-64
2022/04/16 10:28:33;;;;;;;;;12.00;11.00;;;;;19.56;48.10;99358.22;5093172;27;45847;-64
2022/04/16 10:30:58;;;;;;;;;11.50;10.00;;;;;19.66;48.12;99372.63;5092247;27;45391;-64
2022/04/16 10:33:31;;;;;;;;;11.00;9.25;;;;;19.74;46.97;99362.22;5094385;27;45233;-64
2022/04/16 10:36:04;;;;;;;;;13.75;12.75;;;;;19.83;46.53;99366.03;5096981;27;45465;-64
2022/04/16 10:38:32;;;;;;;;;12.50;12.00;;;;;19.84;47.30;99359.72;5097513;27;45471;-64
2022/04/16 10:40:59;;;;;;;;;9.25;9.00;;;;;19.87;46.68;99356.81;5094676;27;45501;-64
2022/04/16 10:43:30;;;;;;;;;12.25;12.25;;;;;19.96;47.24;99363.28;5097225;27;45215;-64
2022/04/16 10:46:16;;;;;;;;;8.00;8.00;;;;;20.06;46.52;99365.19;5097030;27;45389;-65
2022/04/16 10:48:42;;;;;;;;;11.00;11.00;;;;;20.05;46.29;99371.50;5096687;27;45891;-64
2022/04/16 10:51:09;;;;;;;;;10.50;9.00;;;;;20.04;46.58;99367.13;5095425;27;45418;-64
2022/04/16 10:53:36;;;;;;;;;5.00;5.00;;;;;20.14;46.24;99354.72;5097222;27;45433;-65
2022/04/16 10:56:13;;;;;;;;;11.50;10.50;;;;;20.12;46.30;99350.47;5097144;27;45514;-64
2022/04/16 10:58:40;;;;;;;;;12.00;11.50;;;;;20.15;46.34;99342.19;5097397;27;46547;-64
2022/04/16 11:01:08;;;;;;;;;13.00;11.00;;;;;20.22;46.09;99340.78;5081703;27;45503;-64
2022/04/16 11:03:41;;;;;;;;;9.00;6.25;;;;;20.31;45.41;99342.75;5097879;27;45272;-64
2022/04/16 11:06:09;;;;;;;;;13.00;11.25;;;;;20.28;45.34;99359.03;5096583;27;45496;-64
2022/04/16 11:08:37;;;;;;;;;12.00;11.00;;;;;20.30;45.74;99348.22;5096479;27;46201;-64
2022/04/16 11:11:03;;;;;;;;;13.25;13.25;;;;;20.32;45.97;99325.72;5093926;27;45503;-65
2022/04/16 11:13:34;;;;;;;;;13.00;11.50;;;;;20.37;45.81;99341.47;5097095;27;45469;-64
2022/04/16 11:15:59;;;;;;;;;11.75;10.75;;;;;20.37;45.37;99336.97;5095376;27;45473;-65
2022/04/16 11:18:26;;;;;;;;;7.25;6.00;;;;;20.47;46.05;99329.06;5097462;27;45563;-65
2022/04/16 11:20:58;;;;;;;;;13.75;10.75;;;;;20.56;45.43;99333.72;5097209;27;45434;-66
2022/04/16 11:23:27;;;;;;;;;12.00;12.00;;;;;20.59;45.49;99338.00;5088403;27;45521;-65
2022/04/16 11:34:15;;;;;;;;;15.00;14.00;;;;;20.84;44.43;99322.53;5096774;27;45391;-66
2022/04/16 11:36:41;;;;;;;;;10.75;10.25;;;;;20.86;45.36;99300.97;5096985;27;45526;-66
2022/04/16 11:39:16;;;;;;;;;9.00;7.50;;;;;20.92;44.61;99313.91;5094996;27;45406;-66